Time;durP1;ratioP1;P1;durP2;ratioP2;P2;SDS_P1;SDS_P2;PMS_P1;PMS_P2;Temp;Humidity;BMP_temperature;BMP_pressure;BME280_temperature;BME280_humidity;BME280_pressure;Samples;Min_cycle;Max_cycle;Signal;HPM_P1;HPM_P2
2022/09/07 00:00:48;;;;;;;4.00;1.50;;;22.40;97.10;;;;;;5072307;28;20548;-76
2022/09/07 00:03:14;;;;;;;5.10;1.90;;;22.40;97.20;;;;;;5074365;28;20515;-76
2022/09/07 00:05:42;;;;;;;4.05;1.80;;;22.40;97.20;;;;;;5073405;28;20025;-77
2022/09/07 00:08:08;;;;;;;5.03;1.48;;;22.40;97.30;;;;;;5072960;28;20029;-76
2022/09/07 00:10:37;;;;;;;3.97;1.40;;;22.40;98.00;;;;;;5071037;28;20063;-76
2022/09/07 00:13:04;;;;;;;4.28;1.73;;;22.30;97.60;;;;;;5063598;28;20024;-76
2022/09/07 00:15:30;;;;;;;4.65;1.70;;;22.20;98.30;;;;;;5071180;28;20033;-77
2022/09/07 00:17:56;;;;;;;5.05;1.80;;;22.20;98.50;;;;;;5058393;28;20096;-76
2022/09/07 00:20:22;;;;;;;2.90;1.73;;;22.10;99.40;;;;;;5059193;28;20039;-76
2022/09/07 00:22:48;;;;;;;5.60;2.10;;;21.90;99.50;;;;;;5063905;28;20013;-76
2022/09/07 00:25:14;;;;;;;3.15;1.67;;;21.80;99.90;;;;;;5084879;28;20031;-76
2022/09/07 00:27:40;;;;;;;3.25;1.35;;;21.70;99.90;;;;;;5060274;28;20017;-76
2022/09/07 00:30:06;;;;;;;3.97;1.65;;;21.60;99.90;;;;;;5065207;28;20020;-76
2022/09/07 00:32:32;;;;;;;4.28;1.85;;;21.50;99.90;;;;;;5063613;28;20028;-77
2022/09/07 00:34:58;;;;;;;6.03;1.60;;;21.50;99.90;;;;;;5067662;28;20528;-78
2022/09/07 00:37:25;;;;;;;4.78;2.55;;;21.40;99.90;;;;;;5068683;28;20071;-76
2022/09/07 00:39:54;;;;;;;4.32;1.40;;;21.40;99.90;;;;;;5068983;28;20459;-77
2022/09/07 00:42:21;;;;;;;4.15;1.75;;;21.40;99.90;;;;;;5073145;28;20384;-76
2022/09/07 00:45:11;;;;;;;3.00;1.58;;;21.50;99.90;;;;;;5073358;28;20120;-76
2022/09/07 00:47:59;;;;;;;5.28;1.73;;;21.50;99.90;;;;;;5075035;28;20023;-76
2022/09/07 00:50:38;;;;;;;4.20;1.77;;;21.40;99.90;;;;;;5076501;28;20021;-78
2022/09/07 00:53:19;;;;;;;4.45;1.55;;;21.50;99.90;;;;;;5057382;28;20381;-77
2022/09/07 00:55:47;;;;;;;4.45;1.80;;;21.50;99.90;;;;;;5058420;28;20090;-78
2022/09/07 00:58:13;;;;;;;6.13;1.75;;;21.40;99.90;;;;;;5076979;28;20066;-78
2022/09/07 01:00:40;;;;;;;4.40;1.50;;;21.40;99.90;;;;;;5072982;28;20492;-77
2022/09/07 01:03:10;;;;;;;2.80;1.70;;;21.40;99.90;;;;;;5066811;28;20021;-77
2022/09/07 01:06:16;;;;;;;5.93;1.95;;;21.40;99.90;;;;;;5070258;28;20512;-77
2022/09/07 01:08:44;;;;;;;2.95;1.98;;;21.40;99.90;;;;;;5049839;28;20029;-77
2022/09/07 01:11:11;;;;;;;3.55;1.70;;;21.40;99.90;;;;;;5059462;28;20118;-77
2022/09/07 01:13:39;;;;;;;2.70;1.73;;;21.40;99.90;;;;;;5070452;28;20036;-78
2022/09/07 01:16:34;;;;;;;5.70;1.85;;;21.30;99.90;;;;;;5063803;28;20032;-77
2022/09/07 01:19:28;;;;;;;2.50;1.63;;;21.30;99.90;;;;;;5075702;28;20028;-77
2022/09/07 01:22:17;;;;;;;9.57;2.47;;;21.20;99.90;;;;;;5067589;28;20393;-77
2022/09/07 01:24:57;;;;;;;6.03;2.35;;;21.20;99.90;;;;;;5066887;28;20013;-77
2022/09/07 01:27:47;;;;;;;4.05;2.22;;;21.10;99.90;;;;;;5073193;28;20122;-77
2022/09/07 01:30:22;;;;;;;5.30;1.70;;;21.10;99.90;;;;;;5075897;28;20020;-77
2022/09/07 01:33:02;;;;;;;4.78;2.25;;;21.10;99.90;;;;;;5074297;28;20111;-77
2022/09/07 01:35:35;;;;;;;6.03;2.10;;;21.00;99.90;;;;;;5063524;28;20041;-77
2022/09/07 01:38:12;;;;;;;3.28;1.85;;;21.00;99.90;;;;;;5062770;28;20044;-77
2022/09/07 01:40:47;;;;;;;6.47;2.10;;;20.90;99.90;;;;;;5056932;28;20033;-77
2022/09/07 01:43:44;;;;;;;5.38;2.05;;;20.90;99.90;;;;;;5062311;28;20017;-77
2022/09/07 01:46:20;;;;;;;6.47;2.58;;;20.80;99.90;;;;;;5077946;28;20029;-77
2022/09/07 01:48:49;;;;;;;3.85;2.50;;;20.80;99.90;;;;;;5060488;28;20025;-77
2022/09/07 01:51:17;;;;;;;6.45;2.22;;;20.70;99.90;;;;;;5064804;28;20049;-77
2022/09/07 01:53:52;;;;;;;4.90;2.40;;;20.70;99.90;;;;;;5063471;28;20090;-77
2022/09/07 01:56:32;;;;;;;6.53;2.60;;;20.60;99.90;;;;;;5068123;28;20028;-77
2022/09/07 01:59:33;;;;;;;6.50;2.50;;;20.60;99.90;;;;;;5066452;28;20017;-77
2022/09/07 02:02:17;;;;;;;6.50;2.47;;;20.50;99.90;;;;;;5070236;28;20033;-77
2022/09/07 02:04:51;;;;;;;4.38;2.20;;;20.40;99.90;;;;;;5069150;28;20025;-77
2022/09/07 02:07:29;;;;;;;3.05;2.03;;;20.40;99.90;;;;;;5077371;28;20035;-77
2022/09/07 02:10:20;;;;;;;5.55;2.28;;;20.30;99.90;;;;;;5067535;28;20028;-77
2022/09/07 02:12:58;;;;;;;6.32;2.15;;;20.30;99.90;;;;;;5059541;28;20119;-77
2022/09/07 02:15:41;;;;;;;4.22;2.17;;;20.30;99.90;;;;;;5064882;28;20016;-78
2022/09/07 02:18:09;;;;;;;7.75;2.83;;;20.30;99.90;;;;;;5069859;28;20056;-77
2022/09/07 02:20:42;;;;;;;6.97;2.47;;;20.30;99.90;;;;;;5069788;28;20020;-77
2022/09/07 02:23:19;;;;;;;4.05;2.58;;;20.20;99.90;;;;;;5064385;28;20021;-77
2022/09/07 02:25:52;;;;;;;5.45;2.78;;;20.20;99.90;;;;;;5074870;28;20025;-77
2022/09/07 02:28:47;;;;;;;5.35;3.03;;;20.20;99.90;;;;;;5073100;28;20033;-77
2022/09/07 02:31:16;;;;;;;6.47;2.75;;;20.20;99.90;;;;;;5069611;28;20563;-77
2022/09/07 02:33:42;;;;;;;6.88;2.60;;;20.20;99.90;;;;;;5066035;28;20086;-77
2022/09/07 02:36:10;;;;;;;7.47;3.22;;;20.20;99.90;;;;;;5071797;28;20044;-77
2022/09/07 02:38:36;;;;;;;7.50;2.75;;;20.20;99.90;;;;;;5076127;28;20459;-77
2022/09/07 02:41:05;;;;;;;4.95;2.70;;;20.20;99.90;;;;;;5076688;28;20048;-77
2022/09/07 02:43:32;;;;;;;7.63;3.83;;;20.20;99.90;;;;;;5078961;28;20099;-77
2022/09/07 02:46:26;;;;;;;4.63;2.88;;;20.20;99.90;;;;;;5065851;28;20053;-77
2022/09/07 02:49:09;;;;;;;8.63;2.63;;;20.10;99.90;;;;;;5077359;28;20040;-77
2022/09/07 02:52:19;;;;;;;3.83;2.67;;;20.10;99.90;;;;;;5074056;28;20107;-77
2022/09/07 02:55:03;;;;;;;6.30;3.15;;;20.10;99.90;;;;;;5057301;28;20037;-77
2022/09/07 02:57:54;;;;;;;6.53;2.90;;;20.00;99.90;;;;;;5068120;28;20028;-77
2022/09/07 03:00:27;;;;;;;6.13;3.28;;;20.00;99.90;;;;;;5071450;28;20029;-77
2022/09/07 03:03:04;;;;;;;5.07;3.50;;;20.00;99.90;;;;;;5070649;28;20025;-77
2022/09/07 03:05:59;;;;;;;6.95;3.03;;;19.90;99.90;;;;;;5082099;28;20083;-77
2022/09/07 03:08:37;;;;;;;8.00;2.97;;;19.80;99.90;;;;;;5068021;28;20020;-77
2022/09/07 03:11:07;;;;;;;9.15;2.95;;;19.70;99.90;;;;;;5073771;28;20016;-77
2022/09/07 03:13:33;;;;;;;6.57;2.58;;;19.70;99.90;;;;;;5071619;28;20131;-77
2022/09/07 03:15:59;;;;;;;4.30;3.15;;;19.60;99.90;;;;;;5075272;28;20060;-77
2022/09/07 03:18:27;;;;;;;7.40;3.33;;;19.60;99.90;;;;;;5063049;28;20025;-77
2022/09/07 03:20:53;;;;;;;8.85;3.10;;;19.50;99.90;;;;;;5066463;28;20017;-77
2022/09/07 03:23:20;;;;;;;6.22;2.83;;;19.50;99.90;;;;;;5066373;28;20021;-77
2022/09/07 03:25:49;;;;;;;8.38;2.97;;;19.40;99.90;;;;;;5066534;28;20055;-77
2022/09/07 03:28:15;;;;;;;4.75;3.03;;;19.40;99.90;;;;;;5073291;28;20021;-77
2022/09/07 03:30:48;;;;;;;8.35;2.88;;;19.40;99.90;;;;;;5070113;28;20180;-77
2022/09/07 03:33:15;;;;;;;6.72;3.30;;;19.40;99.90;;;;;;5067258;28;20104;-77
2022/09/07 03:35:46;;;;;;;4.88;2.85;;;19.30;99.90;;;;;;5069226;28;20040;-77
2022/09/07 03:38:12;;;;;;;7.20;3.15;;;19.30;99.90;;;;;;5060755;28;20024;-77
2022/09/07 03:40:38;;;;;;;7.55;2.75;;;19.30;99.90;;;;;;5059674;28;20021;-77
2022/09/07 03:43:04;;;;;;;7.65;3.20;;;19.30;99.90;;;;;;5064250;28;20017;-77
2022/09/07 03:45:30;;;;;;;6.28;3.03;;;19.20;99.90;;;;;;5069462;28;20048;-78
2022/09/07 03:47:56;;;;;;;7.10;3.17;;;19.20;99.90;;;;;;5065450;28;20028;-78
2022/09/07 03:50:22;;;;;;;4.03;2.85;;;19.10;99.90;;;;;;5064748;28;20109;-77
2022/09/07 03:52:48;;;;;;;8.73;3.10;;;19.20;99.90;;;;;;5068597;28;20027;-77
2022/09/07 03:55:13;;;;;;;9.13;3.58;;;19.10;99.90;;;;;;5067059;28;20025;-77
2022/09/07 03:57:39;;;;;;;8.70;3.60;;;19.10;99.90;;;;;;5069067;28;20073;-77
2022/09/07 04:00:06;;;;;;;6.88;3.45;;;19.10;99.90;;;;;;5072997;28;20056;-77
2022/09/07 04:02:32;;;;;;;6.40;3.45;;;19.10;99.90;;;;;;5075202;28;20029;-78
2022/09/07 04:04:58;;;;;;;7.95;3.60;;;19.10;99.90;;;;;;5074597;28;20031;-77
2022/09/07 04:07:24;;;;;;;4.40;3.13;;;19.10;99.90;;;;;;5074839;28;20043;-77
2022/09/07 04:09:50;;;;;;;6.65;3.20;;;19.10;99.90;;;;;;5066813;28;20025;-77
2022/09/07 04:12:16;;;;;;;9.15;3.50;;;19.00;99.90;;;;;;5058477;28;20029;-77
2022/09/07 04:14:42;;;;;;;16.90;3.45;;;19.00;99.90;;;;;;5058631;28;20051;-77
2022/09/07 04:17:08;;;;;;;8.90;3.75;;;18.90;99.90;;;;;;5063787;28;20092;-77
2022/09/07 04:19:36;;;;;;;8.30;3.35;;;18.90;99.90;;;;;;5060336;28;20025;-77
2022/09/07 04:22:02;;;;;;;4.90;3.03;;;18.90;99.90;;;;;;5066679;28;20029;-77
2022/09/07 04:24:28;;;;;;;7.00;3.47;;;18.90;99.90;;;;;;5065269;28;20032;-78
2022/09/07 04:26:55;;;;;;;6.18;3.28;;;18.80;99.90;;;;;;5073782;28;20024;-77
2022/09/07 04:29:21;;;;;;;8.00;3.65;;;18.80;99.90;;;;;;5079067;28;20119;-78
2022/09/07 04:31:47;;;;;;;9.35;3.72;;;18.70;99.90;;;;;;5072141;28;20025;-77
2022/09/07 04:34:13;;;;;;;11.27;3.50;;;18.70;99.90;;;;;;5074276;28;20487;-77
2022/09/07 04:36:39;;;;;;;7.38;3.80;;;18.70;99.90;;;;;;5068643;28;20029;-77
2022/09/07 04:39:05;;;;;;;9.50;3.40;;;18.60;99.90;;;;;;5062970;28;20493;-78
2022/09/07 04:41:33;;;;;;;8.85;3.60;;;18.60;99.90;;;;;;5075618;28;20031;-77
2022/09/07 04:44:00;;;;;;;7.78;3.38;;;18.60;99.90;;;;;;5073376;28;20074;-77
2022/09/07 04:46:29;;;;;;;12.18;4.43;;;18.50;99.90;;;;;;5071960;28;20055;-77
2022/09/07 04:48:57;;;;;;;7.00;3.88;;;18.50;99.90;;;;;;5071411;28;20028;-77
2022/09/07 04:51:28;;;;;;;6.70;3.85;;;18.50;99.90;;;;;;5074521;28;20028;-77
2022/09/07 04:53:56;;;;;;;9.00;3.53;;;18.50;99.90;;;;;;5073961;28;20507;-77
2022/09/07 04:56:25;;;;;;;11.75;3.72;;;18.50;99.90;;;;;;5067983;28;20564;-77
2022/09/07 04:58:51;;;;;;;9.00;3.70;;;18.50;99.90;;;;;;5056991;28;20025;-77
2022/09/07 05:01:20;;;;;;;9.55;3.58;;;18.40;99.90;;;;;;5069508;28;20021;-77
2022/09/07 05:03:47;;;;;;;12.48;3.75;;;18.40;99.90;;;;;;5065977;28;20012;-77
2022/09/07 05:06:14;;;;;;;8.55;3.90;;;18.40;99.90;;;;;;5075745;28;20025;-77
2022/09/07 05:08:46;;;;;;;14.27;4.47;;;18.40;99.90;;;;;;5069463;28;20048;-77
2022/09/07 05:11:13;;;;;;;8.75;4.03;;;18.40;99.90;;;;;;5057664;28;20036;-77
2022/09/07 05:13:39;;;;;;;5.75;3.40;;;18.30;99.90;;;;;;5070827;28;20035;-77
2022/09/07 05:16:11;;;;;;;7.25;3.80;;;18.30;99.90;;;;;;5072483;28;20028;-77
2022/09/07 05:18:37;;;;;;;5.68;3.30;;;18.30;99.90;;;;;;5074857;28;20024;-77
2022/09/07 05:21:14;;;;;;;10.30;3.65;;;18.20;99.90;;;;;;5075303;28;20069;-77
2022/09/07 05:23:40;;;;;;;8.25;4.03;;;18.30;99.90;;;;;;5072898;28;20067;-77
2022/09/07 05:26:08;;;;;;;6.95;3.47;;;18.30;99.90;;;;;;5074641;28;20024;-77
2022/09/07 05:28:34;;;;;;;6.80;3.67;;;18.20;99.90;;;;;;5057693;28;20139;-77
2022/09/07 05:31:10;;;;;;;6.40;3.58;;;18.20;99.90;;;;;;5058218;28;20029;-77
2022/09/07 05:33:36;;;;;;;6.25;3.80;;;18.20;99.90;;;;;;5063047;28;20055;-77
2022/09/07 05:36:04;;;;;;;8.65;4.43;;;18.20;99.90;;;;;;5074117;28;20044;-77
2022/09/07 05:38:33;;;;;;;11.80;3.70;;;18.20;99.90;;;;;;5069892;28;20089;-77
2022/09/07 05:40:59;;;;;;;9.88;3.83;;;18.20;99.90;;;;;;5091993;28;20013;-77
2022/09/07 05:43:27;;;;;;;7.10;3.53;;;18.30;99.90;;;;;;5071230;28;20423;-77
2022/09/07 05:45:55;;;;;;;5.63;3.92;;;18.30;99.90;;;;;;5073973;28;20519;-77
2022/09/07 05:48:21;;;;;;;7.30;3.88;;;18.30;99.90;;;;;;5076103;28;20029;-77
2022/09/07 05:50:51;;;;;;;9.23;3.58;;;18.40;99.90;;;;;;5073972;28;20016;-77
2022/09/07 05:53:20;;;;;;;5.85;3.22;;;18.40;99.90;;;;;;5068855;28;20491;-77
2022/09/07 05:55:49;;;;;;;7.40;3.97;;;18.50;99.90;;;;;;5068641;28;20504;-77
2022/09/07 05:58:15;;;;;;;7.57;3.30;;;18.60;99.90;;;;;;5067045;28;20025;-78
2022/09/07 06:00:41;;;;;;;4.00;3.10;;;18.70;99.90;;;;;;5067189;28;20028;-78
2022/09/07 06:03:07;;;;;;;11.60;3.42;;;18.80;99.90;;;;;;5069730;28;20032;-78
2022/09/07 06:05:33;;;;;;;8.18;3.35;;;19.00;99.90;;;;;;5067716;28;20024;-78
2022/09/07 06:07:59;;;;;;;7.30;2.97;;;19.10;99.90;;;;;;5072756;28;20028;-78
2022/09/07 06:10:30;;;;;;;10.95;3.30;;;19.20;99.90;;;;;;5074364;28;20119;-78
2022/09/07 06:12:56;;;;;;;8.60;4.25;;;19.30;99.90;;;;;;5076846;28;20045;-78
2022/09/07 06:15:22;;;;;;;11.07;3.15;;;19.40;99.90;;;;;;5074604;28;20116;-78
2022/09/07 06:17:48;;;;;;;8.73;3.50;;;19.50;99.90;;;;;;5067522;28;20053;-78
2022/09/07 06:20:14;;;;;;;7.47;2.92;;;19.60;99.90;;;;;;5061734;28;20496;-78
2022/09/07 06:22:42;;;;;;;7.13;2.97;;;19.60;99.90;;;;;;5061770;28;20104;-79
2022/09/07 06:25:08;;;;;;;19.63;4.45;;;19.80;99.90;;;;;;5070544;28;20020;-79
2022/09/07 06:27:34;;;;;;;5.93;3.17;;;19.80;99.90;;;;;;5078296;28;20063;-78
2022/09/07 06:30:00;;;;;;;8.77;3.20;;;19.90;99.90;;;;;;5077915;28;20055;-79
2022/09/07 06:32:26;;;;;;;5.68;3.22;;;19.90;99.90;;;;;;5079651;28;20063;-78
2022/09/07 06:34:52;;;;;;;11.80;3.83;;;20.00;99.90;;;;;;5073060;28;20049;-79
2022/09/07 06:37:18;;;;;;;7.13;3.00;;;19.90;99.90;;;;;;5074803;28;20032;-77
2022/09/07 06:39:44;;;;;;;9.85;3.35;;;19.90;99.90;;;;;;5071784;28;20043;-78
2022/09/07 06:42:10;;;;;;;9.90;3.30;;;19.90;99.90;;;;;;5074775;28;20035;-78
2022/09/07 06:44:36;;;;;;;6.63;3.03;;;19.90;99.90;;;;;;5075414;28;20017;-78
2022/09/07 06:47:02;;;;;;;4.80;3.03;;;19.90;99.90;;;;;;5077610;28;20043;-78
2022/09/07 06:49:28;;;;;;;9.68;3.30;;;19.90;99.90;;;;;;5078114;28;20104;-78
2022/09/07 06:51:54;;;;;;;9.80;3.33;;;20.00;99.90;;;;;;5068314;28;20064;-78
2022/09/07 06:54:20;;;;;;;7.07;3.20;;;20.10;99.90;;;;;;5060930;28;20041;-79
2022/09/07 06:56:46;;;;;;;5.20;3.05;;;20.20;99.90;;;;;;5060009;28;20401;-79
2022/09/07 06:59:12;;;;;;;10.73;3.90;;;20.30;99.90;;;;;;5064510;28;20108;-78
2022/09/07 07:01:39;;;;;;;11.05;2.60;;;20.40;99.90;;;;;;5072694;28;20060;-78
2022/09/07 07:04:05;;;;;;;8.57;3.17;;;20.60;99.90;;;;;;5068373;28;20067;-79
2022/09/07 07:06:38;;;;;;;8.50;3.03;;;20.60;99.90;;;;;;5067638;28;20028;-79
2022/09/07 07:09:06;;;;;;;6.07;2.92;;;20.70;99.90;;;;;;5070405;28;20430;-78
2022/09/07 07:11:32;;;;;;;9.25;3.05;;;20.80;99.90;;;;;;5070877;28;20032;-78
2022/09/07 07:13:58;;;;;;;10.57;3.38;;;20.90;99.90;;;;;;5072265;28;20031;-78
2022/09/07 07:16:24;;;;;;;10.48;2.85;;;20.90;99.90;;;;;;5074953;28;20027;-77
2022/09/07 07:18:56;;;;;;;4.80;2.78;;;21.00;99.90;;;;;;5076782;28;20028;-78
2022/09/07 07:21:23;;;;;;;9.65;2.95;;;21.20;99.90;;;;;;5069890;28;20025;-77
2022/09/07 07:23:50;;;;;;;8.55;2.90;;;21.20;99.90;;;;;;5070479;28;20032;-77
2022/09/07 07:26:19;;;;;;;7.30;3.00;;;21.40;99.90;;;;;;5076387;28;20035;-78
2022/09/07 07:28:47;;;;;;;11.88;3.00;;;21.40;99.90;;;;;;5060535;28;20104;-77
2022/09/07 07:31:15;;;;;;;7.55;2.90;;;21.50;99.90;;;;;;5060668;28;20029;-78
2022/09/07 07:33:41;;;;;;;9.75;2.97;;;21.70;99.90;;;;;;5066520;28;20028;-77
2022/09/07 07:36:12;;;;;;;7.25;3.03;;;22.10;99.90;;;;;;5067792;28;20099;-76
2022/09/07 07:38:40;;;;;;;7.57;2.58;;;22.50;99.90;;;;;;5068269;28;20021;-77
2022/09/07 07:41:06;;;;;;;8.82;2.75;;;22.60;99.90;;;;;;5065224;28;20017;-77
2022/09/07 07:43:32;;;;;;;13.45;3.38;;;22.50;99.90;;;;;;5070883;28;20035;-78
2022/09/07 07:45:58;;;;;;;10.60;2.83;;;22.50;99.90;;;;;;5066957;28;20027;-77
2022/09/07 07:48:28;;;;;;;9.23;2.50;;;22.60;99.90;;;;;;5074117;28;20024;-77
2022/09/07 07:50:58;;;;;;;11.75;3.03;;;22.60;99.90;;;;;;5074263;28;20056;-77
2022/09/07 07:53:27;;;;;;;11.57;2.70;;;22.60;99.90;;;;;;5075422;28;20024;-77
2022/09/07 07:55:57;;;;;;;7.72;3.08;;;22.60;99.90;;;;;;5076259;28;20115;-77
2022/09/07 07:58:24;;;;;;;9.13;2.90;;;22.70;99.90;;;;;;5067239;28;20023;-77
2022/09/07 08:00:50;;;;;;;8.52;2.90;;;22.80;99.90;;;;;;5061147;28;20386;-77
2022/09/07 08:03:19;;;;;;;6.57;2.78;;;22.80;99.90;;;;;;5059157;28;20021;-77
2022/09/07 08:05:45;;;;;;;7.82;3.00;;;23.00;99.90;;;;;;5062686;28;20062;-77
2022/09/07 08:08:11;;;;;;;18.17;3.08;;;23.00;99.90;;;;;;5060653;28;20108;-77
2022/09/07 08:10:38;;;;;;;14.55;3.22;;;22.90;99.90;;;;;;5065578;28;20040;-77
2022/09/07 08:13:04;;;;;;;10.65;2.08;;;22.90;99.90;;;;;;5065136;28;20025;-77
2022/09/07 08:15:30;;;;;;;8.60;2.40;;;22.80;99.90;;;;;;5066742;28;20029;-77
2022/09/07 08:17:59;;;;;;;7.82;2.30;;;23.00;99.90;;;;;;5067725;28;20107;-77
2022/09/07 08:20:25;;;;;;;8.68;3.28;;;23.00;99.90;;;;;;5070290;28;20461;-78
2022/09/07 08:22:51;;;;;;;9.75;2.90;;;23.00;99.90;;;;;;5072931;28;20044;-78
2022/09/07 08:25:17;;;;;;;8.25;2.83;;;23.00;99.90;;;;;;5074300;28;20028;-78
2022/09/07 08:27:45;;;;;;;8.05;2.40;;;23.00;99.90;;;;;;5076247;28;20465;-77
2022/09/07 08:30:12;;;;;;;6.50;2.50;;;22.80;99.90;;;;;;5059478;28;20397;-79
2022/09/07 08:32:41;;;;;;;12.07;2.33;;;22.80;99.90;;;;;;5057156;28;20063;-78
2022/09/07 08:35:07;;;;;;;7.65;2.58;;;22.70;99.90;;;;;;5071598;28;20098;-78
2022/09/07 08:37:33;;;;;;;8.52;2.50;;;22.70;99.90;;;;;;5060019;28;20029;-79
2022/09/07 08:40:02;;;;;;;10.13;2.38;;;22.70;99.90;;;;;;5063572;28;20503;-77
2022/09/07 08:42:55;;;;;;;6.60;2.95;;;22.80;99.90;;;;;;5060721;28;20067;-77
2022/09/07 08:45:36;;;;;;;10.98;2.55;;;22.90;99.90;;;;;;5088177;28;20048;-77
2022/09/07 08:48:04;;;;;;;5.03;2.17;;;22.80;99.90;;;;;;5073310;28;20020;-78
2022/09/07 08:50:52;;;;;;;8.48;2.83;;;23.00;99.90;;;;;;5063968;28;20021;-78
2022/09/07 08:53:19;;;;;;;5.22;2.47;;;22.80;99.90;;;;;;5069612;28;20031;-77
2022/09/07 08:55:51;;;;;;;8.10;2.67;;;22.80;99.90;;;;;;5066469;28;20109;-78
2022/09/07 08:58:31;;;;;;;6.55;2.35;;;22.60;99.90;;;;;;5072256;28;20074;-77
2022/09/07 09:00:57;;;;;;;;;;;22.80;99.90;;;;;;5090614;28;20028;-78
2022/09/07 09:03:34;;;;;;;6.35;2.30;;;22.80;99.90;;;;;;5091281;28;20372;-78
2022/09/07 09:06:15;;;;;;;8.25;2.53;;;22.90;99.90;;;;;;5071790;28;20111;-77
2022/09/07 09:09:00;;;;;;;9.90;2.60;;;23.10;99.90;;;;;;5061093;28;20035;-78
2022/09/07 09:11:43;;;;;;;7.75;2.60;;;23.30;99.90;;;;;;5061736;28;20036;-79
2022/09/07 09:14:33;;;;;;;8.13;2.42;;;23.10;99.90;;;;;;5063154;28;20025;-79
2022/09/07 09:17:07;;;;;;;5.57;1.95;;;23.20;99.90;;;;;;5068889;28;20489;-79
2022/09/07 09:19:39;;;;;;;5.10;2.13;;;23.10;99.90;;;;;;5079395;28;20012;-79
2022/09/07 09:22:27;;;;;;;6.15;2.72;;;23.30;99.90;;;;;;5075531;28;20029;-78
2022/09/07 09:25:20;;;;;;;6.80;2.47;;;23.40;99.90;;;;;;5077008;28;20473;-78
2022/09/07 09:27:48;;;;;;;8.95;2.55;;;23.40;99.90;;;;;;5074277;28;20027;-79
2022/09/07 09:30:26;;;;;;;12.02;2.75;;;23.30;99.90;;;;;;5078062;28;20020;-78
2022/09/07 09:33:13;;;;;;;7.20;2.00;;;23.30;99.90;;;;;;5069475;28;20024;-81
2022/09/07 09:35:50;;;;;;;9.98;2.53;;;23.50;99.90;;;;;;5078465;28;20070;-78
2022/09/07 09:38:42;;;;;;;9.13;2.88;;;23.70;99.90;;;;;;5077322;28;20028;-79
2022/09/07 09:41:14;;;;;;;12.40;2.85;;;24.20;99.90;;;;;;5090978;28;20037;-78
2022/09/07 09:43:45;;;;;;;6.90;2.60;;;24.10;99.90;;;;;;5080166;28;20024;-79
2022/09/07 09:46:24;;;;;;;5.80;2.85;;;23.90;99.90;;;;;;5063590;28;20485;-79
2022/09/07 09:49:19;;;;;;;9.23;2.67;;;23.90;99.90;;;;;;5061974;28;20074;-79
2022/09/07 09:51:51;;;;;;;7.68;2.50;;;23.70;99.90;;;;;;5075443;28;20456;-78
2022/09/07 09:54:25;;;;;;;6.97;2.22;;;23.70;99.90;;;;;;5068846;28;20107;-78
2022/09/07 09:56:57;;;;;;;11.05;2.50;;;24.00;99.90;;;;;;5079829;28;20027;-79
2022/09/07 09:59:31;;;;;;;5.35;2.30;;;24.10;99.90;;;;;;5076178;28;20032;-79
2022/09/07 10:01:58;;;;;;;8.40;2.72;;;24.30;99.90;;;;;;5065847;28;20019;-78
2022/09/07 10:04:32;;;;;;;9.98;2.35;;;24.30;99.90;;;;;;5093262;28;20031;-79
2022/09/07 10:07:16;;;;;;;8.95;2.60;;;24.50;99.90;;;;;;5076668;28;20025;-78
2022/09/07 10:09:52;;;;;;;12.18;2.40;;;24.60;99.90;;;;;;5060549;28;20035;-78
2022/09/07 10:12:31;;;;;;;4.63;1.95;;;24.60;99.90;;;;;;5073460;28;20162;-78
2022/09/07 10:15:02;;;;;;;10.35;2.10;;;24.80;99.90;;;;;;5060980;28;20036;-79
2022/09/07 10:17:40;;;;;;;8.15;2.10;;;25.20;99.90;;;;;;5062221;28;20481;-78
2022/09/07 10:20:15;;;;;;;6.63;2.58;;;25.50;99.90;;;;;;5063907;28;20036;-79
2022/09/07 10:23:07;;;;;;;9.43;2.30;;;25.80;99.90;;;;;;5066969;28;20013;-80
2022/09/07 10:25:35;;;;;;;11.25;3.47;;;25.70;99.90;;;;;;5063566;28;20029;-79
2022/09/07 10:28:11;;;;;;;5.65;2.38;;;26.00;99.90;;;;;;5073110;28;20472;-78
2022/09/07 10:31:07;;;;;;;6.53;2.25;;;26.20;99.90;;;;;;5073538;28;20029;-78
2022/09/07 10:33:48;;;;;;;7.63;1.88;;;26.00;99.90;;;;;;5075837;28;20023;-78
2022/09/07 10:36:30;;;;;;;9.23;2.90;;;25.80;99.90;;;;;;5073681;28;20509;-77
2022/09/07 10:39:24;;;;;;;8.93;2.35;;;25.50;99.90;;;;;;5077222;28;20025;-78
2022/09/07 10:42:04;;;;;;;7.40;2.58;;;25.50;99.90;;;;;;5070021;28;20028;-80
2022/09/07 10:44:48;;;;;;;4.85;2.55;;;25.50;99.90;;;;;;5061344;28;20034;-79
2022/09/07 10:47:28;;;;;;;9.45;2.47;;;25.50;99.90;;;;;;5059600;28;20035;-78
2022/09/07 10:50:06;;;;;;;9.27;2.58;;;25.40;99.90;;;;;;5062496;28;20013;-77
2022/09/07 10:52:35;;;;;;;5.45;2.08;;;25.20;99.90;;;;;;5064187;28;20054;-77
2022/09/07 10:55:25;;;;;;;5.95;2.42;;;25.40;99.90;;;;;;5072820;28;20020;-78
2022/09/07 10:58:23;;;;;;;6.33;2.37;;;25.60;99.90;;;;;;5072228;28;20036;-77
2022/09/07 11:01:07;;;;;;;10.70;2.75;;;25.50;99.90;;;;;;5064383;28;20435;-77
2022/09/07 11:03:55;;;;;;;10.75;2.00;;;25.60;99.90;;;;;;5071350;28;20082;-78
2022/09/07 11:06:34;;;;;;;8.48;2.30;;;25.80;99.90;;;;;;5068076;28;20033;-77
2022/09/07 11:09:08;;;;;;;7.05;2.17;;;25.80;99.90;;;;;;5076248;28;20066;-77
2022/09/07 11:11:38;;;;;;;14.70;2.50;;;26.00;99.90;;;;;;5078103;28;20112;-79
2022/09/07 11:14:13;;;;;;;8.65;2.05;;;26.20;99.90;;;;;;5073742;28;20059;-78
2022/09/07 11:17:00;;;;;;;4.93;1.92;;;26.50;99.90;;;;;;5076730;28;20052;-78
2022/09/07 11:19:34;;;;;;;9.70;2.15;;;26.30;99.90;;;;;;5073923;28;20021;-77
2022/09/07 11:22:04;;;;;;;6.80;1.98;;;26.60;99.90;;;;;;5082691;28;20070;-77
2022/09/07 11:24:55;;;;;;;7.95;2.20;;;27.00;99.90;;;;;;5065894;28;20017;-76
2022/09/07 11:27:32;;;;;;;6.32;1.85;;;27.40;99.90;;;;;;5065743;28;20029;-74
2022/09/07 11:30:21;;;;;;;4.95;1.98;;;27.50;99.90;;;;;;5073099;28;20380;-74
2022/09/07 11:33:02;;;;;;;9.00;2.45;;;27.50;98.90;;;;;;5069796;28;20397;-74
2022/09/07 11:35:52;;;;;;;6.70;1.60;;;27.70;99.90;;;;;;5066345;28;20463;-77
2022/09/07 11:38:33;;;;;;;9.80;2.13;;;28.00;99.50;;;;;;5074244;28;20023;-74
2022/09/07 11:41:12;;;;;;;8.98;2.25;;;28.10;99.10;;;;;;5073899;28;20059;-74
2022/09/07 11:43:44;;;;;;;7.25;2.20;;;28.10;98.60;;;;;;5067831;28;20029;-75
2022/09/07 11:46:42;;;;;;;10.35;1.95;;;27.90;96.90;;;;;;5058275;28;20046;-74
2022/09/07 11:49:18;;;;;;;6.57;2.25;;;27.70;97.50;;;;;;5059438;28;20052;-74
2022/09/07 11:51:59;;;;;;;13.32;2.33;;;27.90;97.20;;;;;;5060225;28;20024;-74
2022/09/07 11:54:52;;;;;;;7.35;2.65;;;28.10;96.50;;;;;;5066101;28;20036;-75
2022/09/07 11:57:48;;;;;;;7.50;2.55;;;28.10;96.70;;;;;;5074162;28;20025;-77
2022/09/07 12:00:21;;;;;;;4.07;2.05;;;28.10;96.50;;;;;;5069680;28;20025;-74
2022/09/07 12:03:20;;;;;;;8.35;2.22;;;28.10;96.30;;;;;;5072157;28;20413;-74
2022/09/07 12:05:52;;;;;;;4.90;2.47;;;28.30;96.60;;;;;;5068514;28;20031;-74
2022/09/07 12:08:30;;;;;;;7.68;2.25;;;28.60;97.50;;;;;;5069095;28;20488;-75
2022/09/07 12:11:17;;;;;;;5.82;1.90;;;28.90;95.80;;;;;;5058855;28;20025;-74
2022/09/07 12:13:55;;;;;;;4.75;1.83;;;29.30;94.40;;;;;;5060467;28;20029;-76
2022/09/07 12:16:27;;;;;;;5.22;1.95;;;29.30;94.70;;;;;;5068156;28;20033;-74
2022/09/07 12:19:19;;;;;;;4.50;1.85;;;29.50;94.60;;;;;;5067481;28;20021;-75
2022/09/07 12:21:50;;;;;;;4.40;1.73;;;29.70;93.60;;;;;;5063909;28;20088;-74
2022/09/07 12:24:34;;;;;;;5.68;1.83;;;29.60;93.90;;;;;;5067189;28;20475;-75
2022/09/07 12:27:02;;;;;;;6.03;1.92;;;29.40;92.60;;;;;;5069864;28;20058;-74
2022/09/07 12:29:30;;;;;;;11.15;2.42;;;29.30;93.40;;;;;;5067382;28;20021;-75
2022/09/07 12:31:58;;;;;;;13.48;2.08;;;29.10;94.60;;;;;;5072580;28;20050;-75
2022/09/07 12:34:30;;;;;;;9.32;2.33;;;29.30;94.50;;;;;;5074304;28;20031;-79
2022/09/07 12:37:00;;;;;;;8.35;2.10;;;29.20;92.80;;;;;;5064126;28;20028;-75
2022/09/07 12:39:28;;;;;;;7.55;2.03;;;29.00;92.80;;;;;;5076048;28;20044;-76
2022/09/07 12:42:08;;;;;;;13.07;2.03;;;29.10;92.90;;;;;;5068257;28;20027;-75
2022/09/07 12:44:38;;;;;;;6.90;1.75;;;29.00;92.90;;;;;;5058256;28;20017;-75
2022/09/07 12:47:27;;;;;;;9.20;2.20;;;29.10;92.60;;;;;;5058346;28;20115;-75
2022/09/07 12:49:59;;;;;;;5.72;2.25;;;29.20;93.30;;;;;;5060369;28;20027;-74
2022/09/07 12:52:36;;;;;;;7.28;1.92;;;29.40;92.90;;;;;;5061369;28;20029;-76
2022/09/07 12:55:14;;;;;;;4.43;1.85;;;29.60;91.70;;;;;;5062986;28;20046;-74
2022/09/07 12:57:52;;;;;;;8.88;1.90;;;29.50;92.00;;;;;;5065956;28;20163;-76
2022/09/07 13:00:37;;;;;;;9.63;2.45;;;29.30;92.10;;;;;;5065123;28;20393;-75
2022/09/07 13:03:46;;;;;;;5.75;1.98;;;29.00;91.80;;;;;;5065346;28;20087;-76
2022/09/07 13:06:43;;;;;;;7.30;2.30;;;28.90;92.60;;;;;;5058137;28;20520;-77
2022/09/07 13:09:38;;;;;;;4.75;2.15;;;28.70;93.30;;;;;;5071941;28;20052;-76
2022/09/07 13:12:33;;;;;;;6.78;1.80;;;28.50;93.70;;;;;;5073153;28;20027;-76
2022/09/07 13:15:00;;;;;;;9.20;2.60;;;28.20;94.20;;;;;;5063749;28;20025;-75
2022/09/07 13:17:38;;;;;;;;;;;;;;;;;;;;;
2022/09/07 13:20:17;;;;;;;11.98;2.17;;;28.30;95.30;;;;;;5061521;28;20112;-75